createdAt,value
2019-03-26T00:01:52.219Z,25.32
2019-03-26T00:04:20.598Z,24.27
2019-03-26T00:06:49.290Z,22.15
2019-03-26T00:09:17.708Z,22.50
2019-03-26T00:11:46.516Z,23.75
2019-03-26T00:14:14.856Z,21.48
2019-03-26T00:16:43.869Z,22.70
2019-03-26T00:19:12.614Z,21.17
2019-03-26T00:21:41.391Z,24.35
2019-03-26T00:24:09.810Z,21.97
2019-03-26T00:26:38.475Z,24.87
2019-03-26T00:29:09.942Z,22.40
2019-03-26T00:31:38.560Z,25.90
2019-03-26T00:34:18.621Z,24.80
2019-03-26T00:36:37.049Z,30.62
2019-03-26T00:39:06.958Z,24.90
2019-03-26T00:44:03.197Z,23.40
2019-03-26T00:46:31.560Z,24.50
2019-03-26T00:49:00.229Z,22.93
2019-03-26T00:51:29.143Z,24.87
2019-03-26T00:53:57.477Z,25.82
2019-03-26T00:56:26.367Z,23.52
2019-03-26T00:58:55.149Z,21.07
2019-03-26T01:01:23.803Z,24.65
2019-03-26T01:03:54.993Z,22.15
2019-03-26T01:06:22.908Z,28.15
2019-03-26T01:08:51.283Z,28.30
2019-03-26T01:11:19.970Z,24.77
2019-03-26T01:13:48.377Z,25.25
2019-03-26T01:16:16.662Z,27.20
2019-03-26T01:18:45.372Z,26.73
2019-03-26T01:21:14.127Z,24.07
2019-03-26T01:23:42.730Z,25.20
2019-03-26T01:26:11.235Z,24.75
2019-03-26T01:28:39.877Z,32.15
2019-03-26T01:31:08.247Z,27.10
2019-03-26T01:33:37.016Z,28.42
2019-03-26T01:36:05.571Z,28.92
2019-03-26T01:38:33.903Z,35.13
2019-03-26T01:41:02.642Z,27.32
2019-03-26T01:43:31.290Z,28.15
2019-03-26T01:45:59.701Z,25.25
2019-03-26T01:48:27.989Z,31.37
2019-03-26T01:50:56.302Z,25.77
2019-03-26T01:53:24.659Z,26.70
2019-03-26T01:55:53.245Z,28.95
2019-03-26T01:58:22.036Z,28.75
2019-03-26T02:00:50.578Z,24.85
2019-03-26T02:03:19.329Z,27.10
2019-03-26T02:05:47.788Z,29.32
2019-03-26T02:08:16.134Z,28.02
2019-03-26T02:10:44.512Z,28.20
2019-03-26T02:13:13.421Z,28.50
2019-03-26T02:15:44.367Z,26.70
2019-03-26T02:18:13.480Z,26.02
2019-03-26T02:20:41.793Z,30.50
2019-03-26T02:23:10.279Z,28.67
2019-03-26T02:25:38.868Z,26.85
2019-03-26T02:28:07.207Z,30.35
2019-03-26T02:30:35.554Z,27.77
2019-03-26T02:33:05.020Z,31.52
2019-03-26T02:35:35.052Z,28.98
2019-03-26T02:38:03.474Z,28.02
2019-03-26T02:40:31.845Z,26.33
2019-03-26T02:43:00.219Z,27.60
2019-03-26T02:45:29.173Z,26.25
2019-03-26T02:47:57.639Z,27.27
2019-03-26T02:50:26.536Z,29.57
2019-03-26T02:52:56.499Z,30.03
2019-03-26T02:57:52.964Z,27.10
2019-03-26T03:00:21.630Z,26.35
2019-03-26T03:02:50.100Z,26.77
2019-03-26T03:05:34.477Z,28.12
2019-03-26T03:07:48.832Z,25.75
2019-03-26T03:10:17.799Z,28.67
2019-03-26T03:13:01.825Z,28.53
2019-03-26T03:15:30.573Z,23.77
2019-03-26T03:17:59.109Z,30.82
2019-03-26T03:20:27.800Z,31.85
2019-03-26T03:22:57.020Z,30.08
2019-03-26T03:25:25.831Z,30.50
2019-03-26T03:27:54.192Z,29.60
2019-03-26T03:30:22.696Z,31.00
2019-03-26T03:32:51.301Z,32.90
2019-03-26T03:35:19.634Z,32.60
2019-03-26T03:37:48.227Z,33.55
2019-03-26T03:40:17.111Z,30.12
2019-03-26T03:42:46.461Z,28.85
2019-03-26T03:45:18.284Z,38.40
2019-03-26T03:47:47.331Z,32.93
2019-03-26T03:50:16.809Z,33.00
2019-03-26T03:52:45.328Z,36.98
2019-03-26T03:55:13.904Z,37.33
2019-03-26T03:57:42.337Z,37.45
2019-03-26T04:00:29.320Z,35.20
2019-03-26T04:02:58.059Z,34.83
2019-03-26T04:05:26.719Z,34.78
2019-03-26T04:07:55.581Z,34.53
2019-03-26T04:10:25.466Z,36.05
2019-03-26T04:15:27.832Z,35.08
2019-03-26T04:17:56.517Z,34.05
2019-03-26T04:20:24.812Z,42.62
2019-03-26T04:22:53.525Z,35.83
2019-03-26T04:25:21.876Z,33.85
2019-03-26T04:27:50.195Z,35.43
2019-03-26T04:30:29.552Z,37.05
2019-03-26T04:32:58.145Z,34.38
2019-03-26T04:35:26.980Z,38.35
2019-03-26T04:37:56.187Z,33.58
2019-03-26T04:40:24.586Z,34.80
2019-03-26T04:42:52.986Z,36.30
2019-03-26T04:45:21.378Z,31.93
2019-03-26T04:47:50.103Z,37.48
2019-03-26T04:50:18.874Z,33.05
2019-03-26T04:52:47.382Z,29.57
2019-03-26T04:55:16.229Z,30.65
2019-03-26T04:57:44.899Z,40.85
2019-03-26T05:00:13.258Z,35.80
2019-03-26T05:02:41.954Z,35.60
2019-03-26T05:05:12.344Z,37.00
2019-03-26T05:07:40.517Z,33.55
2019-03-26T05:10:08.950Z,34.15
2019-03-26T05:12:48.648Z,34.48
2019-03-26T05:15:17.072Z,31.87
2019-03-26T05:17:45.796Z,34.25
2019-03-26T05:20:14.501Z,30.90
2019-03-26T05:22:43.240Z,30.35
2019-03-26T05:25:11.905Z,29.55
2019-03-26T05:27:45.684Z,31.62
2019-03-26T05:30:10.600Z,31.35
2019-03-26T05:32:39.062Z,24.60
2019-03-26T05:35:07.653Z,29.23
2019-03-26T05:37:36.394Z,35.00
2019-03-26T05:40:07.470Z,32.28
2019-03-26T05:42:36.546Z,24.52
2019-03-26T05:45:07.182Z,24.30
2019-03-26T05:47:35.547Z,28.32
2019-03-26T05:50:06.377Z,27.42
2019-03-26T05:52:34.969Z,29.45
2019-03-26T05:55:05.351Z,23.62
2019-03-26T06:00:21.754Z,29.00
2019-03-26T06:02:51.503Z,24.10
2019-03-26T06:05:19.886Z,23.38
2019-03-26T06:07:49.851Z,22.37
2019-03-26T06:12:45.858Z,24.45
2019-03-26T06:15:15.438Z,22.42
2019-03-26T06:17:43.855Z,19.77
2019-03-26T06:20:14.023Z,25.65
2019-03-26T06:22:44.006Z,24.32
2019-03-26T06:27:40.361Z,24.02
2019-03-26T06:30:09.428Z,24.12
2019-03-26T06:32:39.135Z,20.67
2019-03-26T06:35:09.590Z,19.77
2019-03-26T06:37:38.307Z,20.82
2019-03-26T06:40:08.145Z,20.20
2019-03-26T06:42:36.431Z,16.30
2019-03-26T06:45:07.968Z,17.20
2019-03-26T06:47:36.252Z,25.80
2019-03-26T06:50:07.813Z,18.20
2019-03-26T06:52:37.755Z,16.37
2019-03-26T06:55:06.996Z,17.60
2019-03-26T06:57:36.119Z,16.02
2019-03-26T07:00:07.285Z,16.23
2019-03-26T07:02:35.912Z,72.58
2019-03-26T07:05:04.652Z,20.23
2019-03-26T07:07:32.996Z,22.65
2019-03-26T07:10:01.451Z,21.35
2019-03-26T07:12:29.841Z,17.57
2019-03-26T07:14:58.260Z,24.47
2019-03-26T07:17:27.288Z,20.05
2019-03-26T07:19:55.803Z,20.37
2019-03-26T07:22:24.133Z,21.05
2019-03-26T07:24:52.464Z,22.42
2019-03-26T07:27:20.772Z,21.70
2019-03-26T07:29:49.108Z,17.67
2019-03-26T07:32:17.525Z,19.57
2019-03-26T07:34:45.896Z,20.80
2019-03-26T07:37:14.206Z,19.23
2019-03-26T07:39:42.503Z,15.93
2019-03-26T07:42:12.416Z,14.25
2019-03-26T07:47:08.656Z,14.73
2019-03-26T07:49:37.018Z,16.40
2019-03-26T07:52:06.939Z,17.92
2019-03-26T07:57:03.774Z,18.80
2019-03-26T07:59:32.124Z,17.40
2019-03-26T08:02:00.461Z,17.98
2019-03-26T08:04:28.744Z,23.80
2019-03-26T08:06:57.223Z,17.25
2019-03-26T08:09:25.622Z,18.75
2019-03-26T08:11:54.663Z,23.35
2019-03-26T08:14:23.734Z,20.52
2019-03-26T08:16:52.176Z,15.13
2019-03-26T08:19:20.472Z,18.00
2019-03-26T08:21:48.811Z,21.23
2019-03-26T08:24:17.246Z,23.38
2019-03-26T08:26:46.104Z,19.17
2019-03-26T08:29:14.418Z,23.15
2019-03-26T08:31:42.796Z,19.80
2019-03-26T08:34:11.226Z,18.55
2019-03-26T08:36:39.528Z,18.95
2019-03-26T08:39:07.842Z,14.30
2019-03-26T08:41:36.195Z,17.80
2019-03-26T08:44:04.736Z,18.67
2019-03-26T08:46:33.157Z,15.90
2019-03-26T08:49:01.860Z,18.42
2019-03-26T08:51:30.655Z,18.55
2019-03-26T08:53:59.120Z,19.90
2019-03-26T08:56:27.627Z,20.50
2019-03-26T08:58:55.946Z,20.77
2019-03-26T09:01:24.429Z,19.32
2019-03-26T09:03:52.757Z,17.85
2019-03-26T09:06:21.288Z,18.65
2019-03-26T09:08:49.652Z,19.95
2019-03-26T09:11:17.931Z,15.35
2019-03-26T09:13:46.214Z,13.30
2019-03-26T09:16:14.944Z,8.95
2019-03-26T09:18:43.349Z,11.75
2019-03-26T09:21:11.940Z,10.35
2019-03-26T09:23:40.323Z,5.60
2019-03-26T09:26:08.970Z,7.58
2019-03-26T09:28:37.294Z,9.60
2019-03-26T09:31:05.723Z,10.30
2019-03-26T09:33:34.258Z,6.47
2019-03-26T09:36:02.669Z,9.45
2019-03-26T09:38:38.938Z,8.20
2019-03-26T09:41:01.190Z,7.67
2019-03-26T09:43:29.456Z,9.63
2019-03-26T09:45:57.839Z,10.20
2019-03-26T09:48:26.255Z,7.20
2019-03-26T09:50:54.797Z,5.10
2019-03-26T09:53:23.237Z,8.23
2019-03-26T09:55:51.666Z,5.72
2019-03-26T09:58:20.052Z,4.20
2019-03-26T10:00:48.865Z,6.15
2019-03-26T10:03:17.968Z,4.53
2019-03-26T10:05:46.399Z,6.70
2019-03-26T10:08:17.663Z,6.75
2019-03-26T10:13:14.703Z,7.60
2019-03-26T10:15:43.310Z,6.25
2019-03-26T10:18:11.626Z,6.53
2019-03-26T10:20:40.008Z,5.60
2019-03-26T10:23:08.703Z,6.87
2019-03-26T10:25:37.238Z,6.65
2019-03-26T10:28:06.103Z,5.65
2019-03-26T10:30:40.630Z,6.70
2019-03-26T10:33:09.065Z,4.83
2019-03-26T10:35:48.551Z,8.18
2019-03-26T10:38:18.133Z,7.65
2019-03-26T10:40:46.698Z,7.47
2019-03-26T10:43:15.198Z,4.97
2019-03-26T10:45:43.752Z,5.45
2019-03-26T10:48:12.296Z,6.17
2019-03-26T10:50:40.746Z,5.08
2019-03-26T10:53:09.137Z,6.80
2019-03-26T10:55:37.616Z,6.17
2019-03-26T10:58:05.952Z,5.10
2019-03-26T11:00:34.244Z,4.87
2019-03-26T11:03:02.582Z,5.90
2019-03-26T11:05:31.361Z,6.17
2019-03-26T11:07:59.698Z,5.20
2019-03-26T11:10:29.957Z,5.72
2019-03-26T11:12:58.375Z,5.55
2019-03-26T11:15:27.914Z,7.28
2019-03-26T11:17:56.522Z,4.92
2019-03-26T11:20:24.948Z,4.22
2019-03-26T11:22:54.229Z,5.12
2019-03-26T11:25:22.908Z,6.12
2019-03-26T11:27:52.917Z,4.10
2019-03-26T11:30:21.713Z,4.95
2019-03-26T11:32:50.194Z,3.27
2019-03-26T11:35:18.598Z,4.25
2019-03-26T11:37:47.029Z,3.20
2019-03-26T11:40:15.326Z,4.03
2019-03-26T11:42:43.715Z,4.12
2019-03-26T11:45:12.197Z,5.72
2019-03-26T11:47:40.573Z,5.35
2019-03-26T11:50:08.943Z,3.70
2019-03-26T11:52:37.861Z,5.22
2019-03-26T11:55:10.923Z,4.83
2019-03-26T11:57:39.466Z,4.15
2019-03-26T12:00:09.868Z,6.92
2019-03-26T12:02:38.243Z,4.80
2019-03-26T12:05:07.710Z,4.00
2019-03-26T12:07:36.825Z,5.97
2019-03-26T12:10:07.424Z,4.67
2019-03-26T12:12:35.838Z,10.60
2019-03-26T12:15:05.987Z,5.75
2019-03-26T12:20:02.112Z,3.95
2019-03-26T12:22:31.542Z,7.37
2019-03-26T12:25:00.213Z,5.10
2019-03-26T12:27:28.933Z,5.72
2019-03-26T12:29:57.322Z,9.08
2019-03-26T12:32:25.690Z,4.42
2019-03-26T12:34:54.256Z,5.03
2019-03-26T12:37:22.679Z,8.68
2019-03-26T12:39:59.448Z,6.25
2019-03-26T12:42:24.520Z,6.83
2019-03-26T12:44:52.981Z,5.20
2019-03-26T12:47:21.401Z,8.73
2019-03-26T12:49:49.813Z,7.42
2019-03-26T12:52:18.447Z,10.70
2019-03-26T12:54:46.855Z,8.00
2019-03-26T12:57:15.337Z,8.48
2019-03-26T12:59:45.081Z,8.70
2019-03-26T13:02:13.544Z,7.92
2019-03-26T13:04:41.876Z,8.10
2019-03-26T13:07:10.430Z,7.53
2019-03-26T13:09:41.769Z,7.50
2019-03-26T13:12:10.308Z,10.25
2019-03-26T13:14:38.734Z,11.93
2019-03-26T13:17:07.020Z,9.53
2019-03-26T13:19:35.483Z,8.05
2019-03-26T13:22:03.958Z,8.25
2019-03-26T13:24:32.609Z,8.15
2019-03-26T13:27:00.963Z,8.10
2019-03-26T13:29:29.530Z,13.05
2019-03-26T13:31:57.899Z,10.50
2019-03-26T13:34:26.424Z,11.12
2019-03-26T13:36:54.842Z,9.30
2019-03-26T13:39:23.449Z,7.17
2019-03-26T13:41:51.804Z,8.28
2019-03-26T13:44:20.168Z,7.03
2019-03-26T13:46:51.591Z,8.05
2019-03-26T13:49:19.992Z,6.08
2019-03-26T13:51:48.366Z,7.12
2019-03-26T13:54:16.726Z,6.30
2019-03-26T13:56:45.315Z,6.53
2019-03-26T13:59:13.619Z,5.30
2019-03-26T14:01:41.913Z,4.72
2019-03-26T14:04:10.246Z,4.58
2019-03-26T14:06:38.577Z,4.25
2019-03-26T14:09:07.692Z,4.80
2019-03-26T14:11:36.042Z,5.97
2019-03-26T14:14:04.666Z,3.35
2019-03-26T14:16:32.936Z,3.45
2019-03-26T14:19:01.215Z,2.62
2019-03-26T14:21:29.818Z,7.28
2019-03-26T14:23:58.254Z,3.95
2019-03-26T14:26:26.569Z,4.40
2019-03-26T14:28:54.884Z,1.40
2019-03-26T14:31:23.224Z,2.27
2019-03-26T14:33:51.565Z,2.35
2019-03-26T14:36:19.982Z,2.72
2019-03-26T14:38:48.507Z,1.60
2019-03-26T14:41:16.797Z,1.77
2019-03-26T14:43:45.171Z,2.12
2019-03-26T14:46:13.572Z,3.40
2019-03-26T14:48:42.084Z,2.17
2019-03-26T14:51:10.453Z,2.52
2019-03-26T14:53:38.727Z,3.25
2019-03-26T14:56:07.265Z,6.25
2019-03-26T14:58:36.209Z,3.83
2019-03-26T15:01:06.230Z,2.05
2019-03-26T15:03:34.756Z,5.17
2019-03-26T15:06:04.574Z,3.83
2019-03-26T15:11:07.929Z,3.00
2019-03-26T15:15:59.937Z,4.47
2019-03-26T15:18:28.366Z,3.75
2019-03-26T15:20:58.497Z,4.30
2019-03-26T15:25:54.563Z,2.55
2019-03-26T15:28:22.884Z,2.52
2019-03-26T15:30:51.421Z,5.28
2019-03-26T15:33:19.753Z,7.83
2019-03-26T15:35:48.214Z,3.70
2019-03-26T15:38:16.675Z,3.72
2019-03-26T15:40:45.016Z,3.08
2019-03-26T15:43:13.444Z,2.98
2019-03-26T15:45:41.856Z,5.25
2019-03-26T15:48:11.508Z,3.98
2019-03-26T15:50:43.856Z,8.50
2019-03-26T15:53:12.704Z,6.45
2019-03-26T15:55:41.144Z,6.08
2019-03-26T15:58:09.533Z,6.20
2019-03-26T16:00:37.973Z,5.40
2019-03-26T16:03:06.325Z,4.67
2019-03-26T16:05:34.702Z,7.65
2019-03-26T16:08:03.175Z,5.03
2019-03-26T16:10:31.564Z,5.37
2019-03-26T16:13:00.002Z,6.67
2019-03-26T16:15:28.460Z,7.85
2019-03-26T16:17:57.048Z,6.45
2019-03-26T16:20:25.435Z,8.28
2019-03-26T16:22:54.030Z,9.03
2019-03-26T16:25:22.366Z,17.12
2019-03-26T16:27:51.011Z,14.43
2019-03-26T16:30:21.071Z,17.87
2019-03-26T16:35:29.722Z,18.32
2019-03-26T16:37:58.147Z,22.98
2019-03-26T16:40:26.564Z,19.32
2019-03-26T16:42:54.936Z,25.08
2019-03-26T16:45:24.441Z,17.65
2019-03-26T16:47:53.154Z,16.85
2019-03-26T16:50:21.445Z,55.35
2019-03-26T16:52:49.814Z,21.12
2019-03-26T16:55:18.246Z,18.92
2019-03-26T16:57:46.538Z,21.10
2019-03-26T17:00:14.891Z,22.60
2019-03-26T17:02:43.417Z,18.57
2019-03-26T17:05:11.751Z,19.07
2019-03-26T17:07:40.163Z,20.23
2019-03-26T17:10:08.510Z,21.45
2019-03-26T17:12:36.834Z,19.10
2019-03-26T17:15:07.513Z,24.30
2019-03-26T17:17:35.909Z,17.35
2019-03-26T17:20:05.748Z,18.75
2019-03-26T17:22:34.138Z,17.98
2019-03-26T17:25:02.479Z,19.55
2019-03-26T17:27:30.796Z,15.85
2019-03-26T17:29:59.138Z,20.12
2019-03-26T17:32:27.545Z,19.35
2019-03-26T17:34:55.970Z,17.45
2019-03-26T17:37:24.359Z,17.60
2019-03-26T17:39:52.669Z,13.55
2019-03-26T17:42:21.030Z,14.07
2019-03-26T17:44:49.304Z,20.23
2019-03-26T17:47:17.632Z,17.75
2019-03-26T17:49:46.007Z,16.27
2019-03-26T17:52:14.748Z,19.20
2019-03-26T17:54:43.112Z,21.10
2019-03-26T17:57:11.383Z,17.87
2019-03-26T17:59:39.709Z,27.10
2019-03-26T18:02:08.125Z,23.40
2019-03-26T18:04:36.531Z,26.65
2019-03-26T18:07:05.558Z,21.35
2019-03-26T18:09:34.117Z,20.50
2019-03-26T18:12:02.432Z,27.65
2019-03-26T18:14:30.763Z,40.98
2019-03-26T18:16:59.173Z,36.30
2019-03-26T18:19:27.485Z,28.95
2019-03-26T18:21:55.779Z,31.20
2019-03-26T18:24:24.071Z,28.15
2019-03-26T18:26:52.305Z,27.37
2019-03-26T18:29:20.729Z,25.12
2019-03-26T18:31:49.136Z,29.07
2019-03-26T18:34:18.333Z,31.82
2019-03-26T18:36:46.846Z,31.57
2019-03-26T18:39:15.127Z,29.00
2019-03-26T18:41:43.439Z,27.27
2019-03-26T18:44:11.718Z,30.40
2019-03-26T18:46:40.011Z,33.00
2019-03-26T18:49:08.415Z,26.65
2019-03-26T18:51:36.701Z,27.75
2019-03-26T18:54:05.057Z,27.62
2019-03-26T18:56:33.303Z,35.10
2019-03-26T18:59:01.628Z,54.55
2019-03-26T19:01:30.011Z,39.35
2019-03-26T19:03:58.236Z,32.75
2019-03-26T19:06:35.073Z,33.02
2019-03-26T19:09:04.307Z,31.33
2019-03-26T19:11:34.199Z,33.43
2019-03-26T19:14:02.654Z,36.98
2019-03-26T19:16:31.125Z,36.50
2019-03-26T19:18:59.566Z,29.45
2019-03-26T19:21:28.012Z,28.30
2019-03-26T19:24:04.129Z,31.73
2019-03-26T19:26:27.310Z,33.35
2019-03-26T19:28:55.814Z,32.08
2019-03-26T19:31:24.111Z,27.15
2019-03-26T19:33:52.442Z,23.40
2019-03-26T19:36:20.860Z,26.55
2019-03-26T19:38:49.238Z,31.40
2019-03-26T19:41:19.226Z,24.27
2019-03-26T19:46:29.278Z,22.67
2019-03-26T19:48:57.613Z,27.58
2019-03-26T19:51:26.004Z,24.72
2019-03-26T19:53:54.589Z,22.00
2019-03-26T19:56:27.749Z,21.97
2019-03-26T19:58:56.486Z,20.68
2019-03-26T20:01:37.399Z,23.07
2019-03-26T20:04:06.041Z,17.73
2019-03-26T20:06:34.390Z,17.27
2019-03-26T20:09:05.031Z,16.20
2019-03-26T20:11:33.782Z,11.00
2019-03-26T20:14:03.005Z,16.77
2019-03-26T20:16:41.751Z,12.50
2019-03-26T20:19:02.284Z,19.70
2019-03-26T20:21:31.152Z,14.25
2019-03-26T20:24:00.600Z,14.05
2019-03-26T20:26:29.301Z,10.45
2019-03-26T20:29:03.323Z,14.53
2019-03-26T20:31:31.568Z,11.30
2019-03-26T20:34:00.389Z,11.73
2019-03-26T20:36:29.074Z,13.98
2019-03-26T20:39:02.444Z,13.45
2019-03-26T20:41:31.441Z,13.68
2019-03-26T20:43:59.896Z,10.50
2019-03-26T20:46:28.462Z,14.07
2019-03-26T20:48:57.494Z,22.17
2019-03-26T20:51:25.916Z,9.57
2019-03-26T20:53:54.367Z,10.78
2019-03-26T20:56:22.946Z,13.28
2019-03-26T20:58:57.974Z,14.13
2019-03-26T21:01:26.395Z,8.80
2019-03-26T21:03:54.867Z,12.07
2019-03-26T21:06:23.170Z,18.00
2019-03-26T21:08:52.547Z,14.80
2019-03-26T21:11:21.088Z,24.92
2019-03-26T21:13:50.850Z,16.77
2019-03-26T21:16:19.696Z,17.27
2019-03-26T21:18:48.898Z,19.45
2019-03-26T21:21:17.428Z,16.70
2019-03-26T21:23:45.730Z,23.75
2019-03-26T21:26:14.261Z,23.47
2019-03-26T21:28:42.656Z,24.77
2019-03-26T21:31:11.066Z,25.08
2019-03-26T21:33:39.643Z,28.73
2019-03-26T21:36:08.032Z,26.25
2019-03-26T21:38:36.268Z,26.87
2019-03-26T21:41:04.668Z,23.55
2019-03-26T21:43:33.041Z,25.82
2019-03-26T21:46:01.590Z,25.82
2019-03-26T21:48:29.987Z,35.65
2019-03-26T21:50:58.579Z,38.65
2019-03-26T21:53:26.893Z,31.30
2019-03-26T21:56:05.928Z,35.48
2019-03-26T21:58:26.322Z,32.05
2019-03-26T22:00:55.098Z,28.85
2019-03-26T22:03:23.826Z,30.05
2019-03-26T22:05:52.229Z,29.23
2019-03-26T22:08:20.559Z,25.85
2019-03-26T22:10:50.617Z,28.32
2019-03-26T22:13:19.141Z,28.45
2019-03-26T22:15:47.801Z,28.00
2019-03-26T22:18:16.489Z,25.23
2019-03-26T22:20:45.897Z,30.65
2019-03-26T22:23:15.318Z,33.83
2019-03-26T22:25:44.886Z,46.33
2019-03-26T22:28:13.512Z,44.42
2019-03-26T22:30:42.115Z,33.70
2019-03-26T22:33:10.468Z,29.98
2019-03-26T22:35:38.855Z,32.38
2019-03-26T22:38:07.442Z,34.90
2019-03-26T22:40:36.042Z,30.77
2019-03-26T22:43:04.599Z,34.13
2019-03-26T22:45:32.910Z,28.35
2019-03-26T22:48:01.337Z,25.90
2019-03-26T22:50:29.767Z,26.12
2019-03-26T22:52:58.219Z,28.27
2019-03-26T22:55:26.744Z,29.67
2019-03-26T22:57:55.164Z,27.55
2019-03-26T23:00:23.633Z,30.02
2019-03-26T23:02:52.149Z,27.95
2019-03-26T23:05:20.583Z,25.65
2019-03-26T23:07:50.324Z,30.02
2019-03-26T23:12:46.632Z,27.58
2019-03-26T23:15:21.462Z,27.05
2019-03-26T23:17:50.098Z,24.37
2019-03-26T23:20:18.591Z,33.25
2019-03-26T23:22:47.094Z,25.88
2019-03-26T23:25:15.701Z,25.30
2019-03-26T23:27:44.080Z,37.88
2019-03-26T23:30:12.527Z,27.35
2019-03-26T23:32:41.141Z,32.05
2019-03-26T23:35:09.619Z,24.98
2019-03-26T23:37:37.946Z,20.08
2019-03-26T23:40:06.293Z,26.55
2019-03-26T23:42:34.635Z,20.52
2019-03-26T23:45:04.221Z,22.32
2019-03-26T23:47:32.794Z,25.08
2019-03-26T23:50:01.459Z,25.77
2019-03-26T23:52:30.131Z,22.85
2019-03-26T23:54:58.694Z,26.10
2019-03-26T23:57:26.993Z,21.68
2019-03-26T23:59:55.387Z,20.88
